createdAt,value
2023-02-03T00:00:00.666Z,95941.13
2023-02-03T00:02:27.323Z,95935.72
2023-02-03T00:04:53.990Z,95937.72
2023-02-03T00:07:22.833Z,95944.00
2023-02-03T00:09:49.940Z,95934.72
2023-02-03T00:12:17.307Z,95933.50
2023-02-03T00:14:44.024Z,95930.06
2023-02-03T00:17:11.018Z,95940.75
2023-02-03T00:19:38.807Z,95934.53
2023-02-03T00:22:05.633Z,95931.91
2023-02-03T00:24:33.795Z,95933.72
2023-02-03T00:27:00.542Z,95931.91
2023-02-03T00:29:27.929Z,95946.81
2023-02-03T00:31:55.116Z,95944.00
2023-02-03T00:34:22.510Z,95934.94
2023-02-03T00:36:49.357Z,95935.16
2023-02-03T00:39:16.309Z,95932.56
2023-02-03T00:41:44.416Z,95938.19
2023-02-03T00:44:11.346Z,95943.59
2023-02-03T00:46:38.318Z,95937.78
2023-02-03T00:49:05.303Z,95942.63
2023-02-03T00:51:32.410Z,95944.22
2023-02-03T00:53:59.120Z,95953.09
2023-02-03T00:56:26.046Z,95950.47
2023-02-03T00:58:54.238Z,95953.09
2023-02-03T01:01:21.143Z,95955.09
2023-02-03T01:03:50.301Z,95945.66
2023-02-03T01:06:19.197Z,95950.47
2023-02-03T01:08:47.712Z,95945.84
2023-02-03T01:11:17.790Z,95939.78
2023-02-03T01:13:47.461Z,95947.06
2023-02-03T01:16:20.297Z,95937.00
2023-02-03T01:18:47.836Z,95939.59
2023-02-03T01:21:16.611Z,95946.66
2023-02-03T01:23:45.161Z,95937.78
2023-02-03T01:26:14.231Z,95953.31
2023-02-03T01:28:41.113Z,95968.81
2023-02-03T01:31:12.899Z,95969.28
2023-02-03T01:33:42.024Z,95973.69
2023-02-03T01:36:09.995Z,95979.75
2023-02-03T01:38:37.705Z,95982.16
2023-02-03T01:41:07.235Z,95996.69
2023-02-03T01:43:35.417Z,95990.66
2023-02-03T01:46:07.310Z,95994.44
2023-02-03T01:48:34.844Z,95980.56
2023-02-03T01:51:04.981Z,95971.28
2023-02-03T01:53:33.187Z,95977.31
2023-02-03T01:56:01.403Z,95977.94
2023-02-03T01:58:32.034Z,95966.44
2023-02-03T02:00:59.049Z,95983.59
2023-02-03T02:03:31.802Z,95981.78
2023-02-03T02:06:03.292Z,95971.28
2023-02-03T02:08:31.999Z,95967.88
2023-02-03T02:11:01.046Z,95959.22
2023-02-03T02:13:29.974Z,95948.91
2023-02-03T02:16:06.838Z,95959.38
2023-02-03T02:18:46.487Z,95955.97
2023-02-03T02:21:40.233Z,95946.13
2023-02-03T02:24:40.855Z,95953.78
2023-02-03T02:27:19.932Z,95953.34
2023-02-03T02:30:31.713Z,95956.59
2023-02-03T02:33:20.271Z,95958.19
2023-02-03T02:35:56.985Z,95973.25
2023-02-03T02:38:38.695Z,95955.94
2023-02-03T02:41:14.255Z,95953.31
2023-02-03T02:43:47.353Z,95956.75
2023-02-03T02:46:24.557Z,95957.56
2023-02-03T02:48:59.622Z,95947.88
2023-02-03T02:51:29.513Z,95952.13
2023-02-03T02:54:00.498Z,95952.72
2023-02-03T02:56:30.476Z,95950.50
2023-02-03T02:59:02.016Z,95940.03
2023-02-03T03:01:29.097Z,95950.31
2023-02-03T03:04:00.936Z,95952.72
2023-02-03T03:06:34.108Z,95960.59
2023-02-03T03:09:05.658Z,95952.72
2023-02-03T03:11:37.328Z,95958.78
2023-02-03T03:14:07.655Z,95947.31
2023-02-03T03:16:38.006Z,95928.16
2023-02-03T03:19:11.740Z,95912.88
2023-02-03T03:21:43.440Z,95894.97
2023-02-03T03:24:15.296Z,95901.00
2023-02-03T03:26:47.068Z,95915.94
2023-02-03T03:29:18.271Z,95926.59
2023-02-03T03:31:45.568Z,95941.50
2023-02-03T03:34:16.256Z,95952.16
2023-02-03T03:36:46.379Z,95955.00
2023-02-03T03:39:21.722Z,95938.44
2023-02-03T03:41:58.006Z,95941.50
2023-02-03T03:44:29.327Z,95936.44
2023-02-03T03:47:05.185Z,95935.47
2023-02-03T03:49:36.218Z,95941.88
2023-02-03T03:52:08.044Z,95940.88
2023-02-03T03:54:37.742Z,95949.97
2023-02-03T03:57:10.213Z,95949.97
2023-02-03T03:59:41.308Z,95949.16
2023-02-03T04:02:08.336Z,95934.63
2023-02-03T04:04:38.934Z,95934.63
2023-02-03T04:07:05.778Z,95911.88
2023-02-03T04:09:32.731Z,95905.00
2023-02-03T04:12:03.023Z,95904.81
2023-02-03T04:14:30.637Z,95919.34
2023-02-03T04:16:57.905Z,95919.97
2023-02-03T04:19:25.077Z,95912.47
2023-02-03T04:21:53.661Z,95911.66
2023-02-03T04:24:25.069Z,95895.16
2023-02-03T04:26:51.919Z,95900.81
2023-02-03T04:29:18.804Z,95898.38
2023-02-03T04:31:45.792Z,95892.34
2023-02-03T04:34:13.401Z,95908.06
2023-02-03T04:36:40.503Z,95914.13
2023-02-03T04:39:08.711Z,95923.19
2023-02-03T04:41:35.608Z,95922.59
2023-02-03T04:44:02.370Z,95933.25
2023-02-03T04:46:29.287Z,95953.19
2023-02-03T04:48:56.124Z,95949.59
2023-02-03T04:51:24.344Z,95961.88
2023-02-03T04:53:51.228Z,95952.38
2023-02-03T04:56:19.305Z,95948.78
2023-02-03T04:58:46.026Z,95947.78
2023-02-03T05:01:13.507Z,95935.28
2023-02-03T05:03:40.241Z,95934.50
2023-02-03T05:06:07.056Z,95943.53
2023-02-03T05:08:34.076Z,95961.88
2023-02-03T05:11:02.295Z,95967.94
2023-02-03T05:13:30.672Z,95958.25
2023-02-03T05:15:57.542Z,95967.13
2023-02-03T05:18:24.555Z,95964.50
2023-02-03T05:20:52.439Z,95970.34
2023-02-03T05:23:19.091Z,95968.91
2023-02-03T05:25:46.159Z,95972.94
2023-02-03T05:28:12.890Z,95956.25
2023-02-03T05:30:41.332Z,95973.41
2023-02-03T05:33:08.586Z,95971.38
2023-02-03T05:35:36.428Z,95995.97
2023-02-03T05:38:03.161Z,95983.88
2023-02-03T05:40:48.510Z,95981.44
2023-02-03T05:43:15.374Z,95978.81
2023-02-03T05:45:43.920Z,95975.81
2023-02-03T05:48:11.338Z,95969.13
2023-02-03T05:50:39.034Z,95972.59
2023-02-03T05:53:09.891Z,95965.94
2023-02-03T05:55:36.827Z,95949.38
2023-02-03T05:58:04.051Z,95944.53
2023-02-03T06:00:31.064Z,95947.53
2023-02-03T06:03:02.674Z,95951.59
2023-02-03T06:05:31.028Z,95954.81
2023-02-03T06:07:58.900Z,95944.75
2023-02-03T06:10:26.707Z,95943.09
2023-02-03T06:12:56.324Z,95932.22
2023-02-03T06:15:22.962Z,95928.78
2023-02-03T06:17:51.382Z,95931.03
2023-02-03T06:20:20.807Z,95921.91
2023-02-03T06:22:47.858Z,95921.50
2023-02-03T06:25:14.748Z,95939.84
2023-02-03T06:27:42.679Z,95957.97
2023-02-03T06:30:11.367Z,95960.59
2023-02-03T06:32:38.427Z,95948.31
2023-02-03T06:35:05.674Z,95951.13
2023-02-03T06:37:38.915Z,95962.41
2023-02-03T06:40:06.809Z,95969.28
2023-02-03T06:42:33.669Z,95954.94
2023-02-03T06:45:00.343Z,95941.84
2023-02-03T06:47:27.012Z,95949.50
2023-02-03T06:49:53.667Z,95951.94
2023-02-03T06:52:20.663Z,95959.03
2023-02-03T06:54:52.276Z,95951.34
2023-02-03T06:57:19.172Z,95962.00
2023-02-03T06:59:45.915Z,95967.47
2023-02-03T07:02:12.732Z,95964.63
2023-02-03T07:04:41.354Z,95972.13
2023-02-03T07:07:08.287Z,95968.91
2023-02-03T07:09:34.921Z,95978.78
2023-02-03T07:12:02.976Z,95960.81
2023-02-03T07:14:31.097Z,95974.13
2023-02-03T07:16:57.853Z,95971.13
2023-02-03T07:19:24.646Z,95973.56
2023-02-03T07:21:51.312Z,95976.53
2023-02-03T07:24:18.164Z,95981.97
2023-02-03T07:26:44.791Z,95988.03
2023-02-03T07:29:12.940Z,96002.72
2023-02-03T07:31:40.064Z,95995.06
2023-02-03T07:34:06.734Z,95992.25
2023-02-03T07:36:33.899Z,95991.69
2023-02-03T07:39:00.968Z,96010.81
2023-02-03T07:41:27.917Z,95996.28
2023-02-03T07:43:54.554Z,95999.13
2023-02-03T07:46:23.332Z,95995.31
2023-02-03T07:51:31.447Z,95988.66
2023-02-03T07:53:58.091Z,95979.78
2023-02-03T07:56:26.567Z,95962.06
2023-02-03T07:58:53.632Z,95951.19
2023-02-03T08:01:23.509Z,95949.38
2023-02-03T08:03:50.381Z,95945.56
2023-02-03T08:06:18.372Z,95931.09
2023-02-03T08:08:46.772Z,95931.50
2023-02-03T08:11:13.551Z,95934.13
2023-02-03T08:13:40.813Z,95923.25
2023-02-03T08:16:08.599Z,95907.75
2023-02-03T08:18:53.612Z,95898.31
2023-02-03T08:21:23.223Z,95904.19
2023-02-03T08:23:49.800Z,95915.47
2023-02-03T08:26:18.680Z,95905.41
2023-02-03T08:28:48.892Z,95914.31
2023-02-03T08:31:15.931Z,95924.00
2023-02-03T08:33:42.899Z,95927.63
2023-02-03T08:36:12.033Z,95928.84
2023-02-03T08:38:40.385Z,95935.72
2023-02-03T08:41:11.426Z,95937.31
2023-02-03T08:43:39.086Z,95938.13
2023-02-03T08:46:07.596Z,95943.81
2023-02-03T08:48:34.878Z,95941.38
2023-02-03T08:51:01.767Z,95949.44
2023-02-03T08:53:29.777Z,95962.97
2023-02-03T08:55:56.446Z,95964.19
2023-02-03T08:58:23.271Z,95964.38
2023-02-03T09:00:53.057Z,95972.69
2023-02-03T09:03:20.225Z,95970.69
2023-02-03T09:05:47.144Z,95972.91
2023-02-03T09:08:14.051Z,95980.19
2023-02-03T09:10:42.217Z,95980.19
2023-02-03T09:13:09.169Z,96000.16
2023-02-03T09:15:36.046Z,96003.00
2023-02-03T09:18:03.136Z,95993.94
2023-02-03T09:20:30.360Z,95985.47
2023-02-03T09:22:59.564Z,95961.25
2023-02-03T09:25:29.974Z,95976.19
2023-02-03T09:27:58.103Z,95960.25
2023-02-03T09:30:24.841Z,95960.44
2023-02-03T09:32:54.156Z,95956.84
2023-02-03T09:35:21.152Z,95957.84
2023-02-03T09:37:48.928Z,95962.47
2023-02-03T09:40:22.205Z,95951.00
2023-02-03T09:43:04.179Z,95959.88
2023-02-03T09:45:32.106Z,95959.28
2023-02-03T09:48:04.396Z,95959.06
2023-02-03T09:50:36.031Z,95970.00
2023-02-03T09:53:07.675Z,95971.41
2023-02-03T09:55:39.480Z,95956.06
2023-02-03T09:58:14.658Z,95965.53
2023-02-03T10:00:44.871Z,95975.44
2023-02-03T10:03:23.622Z,95962.09
2023-02-03T10:06:16.084Z,95961.91
2023-02-03T10:09:09.627Z,95951.59
2023-02-03T10:11:53.402Z,95972.59
2023-02-03T10:14:39.395Z,95954.81
2023-02-03T10:17:22.884Z,95930.63
2023-02-03T10:19:55.614Z,95928.19
2023-02-03T10:22:28.133Z,95927.59
2023-02-03T10:24:59.811Z,95942.91
2023-02-03T10:27:29.336Z,95931.22
2023-02-03T10:30:02.049Z,95922.13
2023-02-03T10:32:29.025Z,95932.25
2023-02-03T10:34:56.492Z,95937.69
2023-02-03T10:37:29.330Z,95938.06
2023-02-03T10:39:59.888Z,95914.03
2023-02-03T10:42:49.099Z,95916.47
2023-02-03T10:45:17.261Z,95892.03
2023-02-03T10:47:48.300Z,95922.34
2023-02-03T10:50:18.080Z,95908.59
2023-02-03T10:52:45.178Z,95918.91
2023-02-03T10:55:31.263Z,95908.63
2023-02-03T10:58:06.467Z,95926.78
2023-02-03T11:00:36.238Z,95931.22
2023-02-03T11:03:06.546Z,95920.72
2023-02-03T11:05:34.403Z,95922.31
2023-02-03T11:08:01.063Z,95905.59
2023-02-03T11:10:36.089Z,95902.94
2023-02-03T11:13:12.906Z,95898.72
2023-02-03T11:15:51.451Z,95907.78
2023-02-03T11:18:44.466Z,95918.50
2023-02-03T11:21:15.290Z,95922.53
2023-02-03T11:23:49.700Z,95911.84
2023-02-03T11:26:21.162Z,95910.41
2023-02-03T11:28:50.464Z,95917.50
2023-02-03T11:31:22.387Z,95907.00
2023-02-03T11:33:53.811Z,95917.50
2023-02-03T11:36:20.807Z,95900.31
2023-02-03T11:38:51.281Z,95892.03
2023-02-03T11:41:21.374Z,95901.97
2023-02-03T11:43:49.530Z,95890.84
2023-02-03T11:46:16.786Z,95882.53
2023-02-03T11:48:57.651Z,95878.91
2023-02-03T11:51:33.159Z,95889.81
2023-02-03T11:54:13.509Z,95891.03
2023-02-03T11:56:57.125Z,95887.81
2023-02-03T11:59:41.003Z,95900.72
2023-02-03T12:02:33.832Z,95884.16
2023-02-03T12:08:08.203Z,95847.44
2023-02-03T12:10:45.797Z,95841.19
2023-02-03T12:13:30.373Z,95839.75
2023-02-03T12:16:19.015Z,95818.78
2023-02-03T12:18:55.131Z,95818.16
2023-02-03T12:21:44.449Z,95810.50
2023-02-03T12:24:25.533Z,95817.56
2023-02-03T12:27:04.848Z,95817.78
2023-02-03T12:29:38.519Z,95813.75
2023-02-03T12:32:15.887Z,95803.44
2023-02-03T12:34:50.493Z,95773.16
2023-02-03T12:37:23.343Z,95778.81
2023-02-03T12:39:53.783Z,95759.81
2023-02-03T12:42:26.160Z,95769.50
2023-02-03T12:44:58.880Z,95764.66
2023-02-03T12:47:29.621Z,95772.31
2023-02-03T12:50:02.036Z,95771.09
2023-02-03T12:52:34.226Z,95770.69
2023-02-03T12:55:16.583Z,95767.03
2023-02-03T12:57:49.221Z,95788.22
2023-02-03T13:00:21.939Z,95781.13
2023-02-03T13:02:59.420Z,95771.59
2023-02-03T13:05:32.878Z,95755.00
2023-02-03T13:08:06.141Z,95744.69
2023-02-03T13:10:40.240Z,95741.84
2023-02-03T13:13:15.101Z,95753.31
2023-02-03T13:15:45.812Z,95744.56
2023-02-03T13:18:21.535Z,95736.88
2023-02-03T13:20:48.524Z,95733.25
2023-02-03T13:23:15.981Z,95741.34
2023-02-03T13:25:58.123Z,95714.50
2023-02-03T13:28:39.952Z,95705.38
2023-02-03T13:31:23.346Z,95696.09
2023-02-03T13:34:36.650Z,95692.66
2023-02-03T13:37:35.998Z,95683.75
2023-02-03T13:40:17.833Z,95682.91
2023-02-03T13:42:52.012Z,95678.25
2023-02-03T13:45:25.426Z,95679.84
2023-02-03T13:47:55.357Z,95655.63
2023-02-03T13:50:25.518Z,95664.06
2023-02-03T13:53:00.134Z,95674.56
2023-02-03T13:55:36.094Z,95661.44
2023-02-03T13:58:06.589Z,95667.38
2023-02-03T14:01:10.875Z,95669.34
2023-02-03T14:03:43.820Z,95656.19
2023-02-03T14:06:58.250Z,95670.97
2023-02-03T14:09:38.251Z,95682.81
2023-02-03T14:12:32.796Z,95695.22
2023-02-03T14:15:23.034Z,95702.28
2023-02-03T14:18:26.411Z,95714.25
2023-02-03T14:21:08.595Z,95705.75
2023-02-03T14:23:43.080Z,95684.13
2023-02-03T14:26:20.732Z,95657.31
2023-02-03T14:28:48.464Z,95633.31
2023-02-03T14:31:18.621Z,95631.06
2023-02-03T14:34:13.728Z,95639.19
2023-02-03T14:36:44.527Z,95631.13
2023-02-03T14:39:44.870Z,95622.22
2023-02-03T14:42:34.027Z,95622.22
2023-02-03T14:45:06.876Z,95649.34
2023-02-03T14:47:49.883Z,95654.41
2023-02-03T14:50:34.402Z,95630.78
2023-02-03T14:53:18.477Z,95638.28
2023-02-03T14:55:59.318Z,95640.69
2023-02-03T14:58:34.325Z,95607.78
2023-02-03T15:01:03.631Z,95619.31
2023-02-03T15:03:31.518Z,95623.53
2023-02-03T15:06:01.879Z,95617.09
2023-02-03T15:08:42.368Z,95617.31
2023-02-03T15:11:35.353Z,95614.25
2023-02-03T15:14:24.028Z,95632.88
2023-02-03T15:16:58.675Z,95613.50
2023-02-03T15:19:28.126Z,95623.19
2023-02-03T15:21:55.317Z,95621.59
2023-02-03T15:24:24.059Z,95616.50
2023-02-03T15:26:54.625Z,95619.75
2023-02-03T15:29:27.885Z,95605.84
2023-02-03T15:32:03.003Z,95603.00
2023-02-03T15:34:36.183Z,95598.16
2023-02-03T15:37:09.153Z,95573.13
2023-02-03T15:39:46.094Z,95553.34
2023-02-03T15:42:21.571Z,95539.84
2023-02-03T15:44:57.696Z,95554.00
2023-02-03T15:47:33.147Z,95550.34
2023-02-03T15:50:06.328Z,95573.59
2023-02-03T15:52:38.331Z,95591.38
2023-02-03T15:55:17.819Z,95600.66
2023-02-03T15:57:47.777Z,95582.88
2023-02-03T16:00:30.730Z,95589.53
2023-02-03T16:02:59.783Z,95603.28
2023-02-03T16:05:32.088Z,95609.34
2023-02-03T16:08:35.146Z,95624.91
2023-02-03T16:11:02.604Z,95608.19
2023-02-03T16:13:31.648Z,95598.28
2023-02-03T16:16:18.951Z,95614.81
2023-02-03T16:18:54.736Z,95628.38
2023-02-03T16:21:29.186Z,95619.69
2023-02-03T16:23:57.594Z,95607.56
2023-02-03T16:26:26.475Z,95615.25
2023-02-03T16:29:27.838Z,95592.63
2023-02-03T16:32:15.570Z,95609.41
2023-02-03T16:35:01.305Z,95621.50
2023-02-03T16:37:49.227Z,95617.28
2023-02-03T16:40:37.929Z,95631.41
2023-02-03T16:43:28.249Z,95652.00
2023-02-03T16:46:15.797Z,95660.06
2023-02-03T16:49:02.944Z,95673.41
2023-02-03T16:51:38.074Z,95673.00
2023-02-03T16:54:05.813Z,95669.34
2023-02-03T16:56:32.637Z,95677.84
2023-02-03T16:58:59.874Z,95656.84
2023-02-03T17:01:26.560Z,95693.19
2023-02-03T17:03:54.941Z,95667.56
2023-02-03T17:06:22.630Z,95655.63
2023-02-03T17:08:50.183Z,95657.25
2023-02-03T17:11:27.536Z,95650.59
2023-02-03T17:13:57.931Z,95653.41
2023-02-03T17:16:29.127Z,95648.16
2023-02-03T17:18:57.917Z,95638.88
2023-02-03T17:21:27.350Z,95650.97
2023-02-03T17:23:54.556Z,95632.59
2023-02-03T17:26:23.687Z,95616.84
2023-02-03T17:29:01.876Z,95622.31
2023-02-03T17:31:29.699Z,95630.56
2023-02-03T17:33:59.760Z,95647.13
2023-02-03T17:36:26.932Z,95649.94
2023-02-03T17:55:26.938Z,95673.13
2023-02-03T17:57:53.785Z,95685.63
2023-02-03T18:00:21.603Z,95677.97
2023-02-03T18:02:50.143Z,95683.81
2023-02-03T18:05:24.795Z,95685.63
2023-02-03T18:07:51.699Z,95689.47
2023-02-03T18:10:22.613Z,95694.72
2023-02-03T18:12:53.434Z,95701.19
2023-02-03T18:15:20.619Z,95695.94
2023-02-03T18:17:47.361Z,95691.28
2023-02-03T18:20:15.599Z,95699.97
2023-02-03T18:23:11.046Z,95716.91
2023-02-03T18:25:38.399Z,95710.25
2023-02-03T18:28:05.276Z,95711.28
2023-02-03T18:33:12.789Z,95712.06
2023-02-03T18:38:21.736Z,95726.22
2023-02-03T18:40:48.755Z,95720.34
2023-02-03T18:43:15.923Z,95715.50
2023-02-03T18:45:42.905Z,95722.78
2023-02-03T18:48:09.832Z,95733.50
2023-02-03T18:53:18.610Z,95725.63
2023-02-03T18:55:48.840Z,95736.53
2023-02-03T19:03:38.053Z,95755.31
2023-02-03T19:06:09.748Z,95747.06
2023-02-03T19:08:36.776Z,95746.66
2023-02-03T19:11:16.123Z,95756.56
2023-02-03T19:13:45.833Z,95734.53
2023-02-03T19:16:15.051Z,95741.66
2023-02-03T19:21:25.298Z,95736.41
2023-02-03T19:23:52.441Z,95730.97
2023-02-03T19:26:21.442Z,95751.16
2023-02-03T19:28:49.134Z,95743.28
2023-02-03T19:31:16.853Z,95743.09
2023-02-03T19:33:43.894Z,95744.13
2023-02-03T19:36:11.609Z,95759.03
2023-02-03T19:38:38.485Z,95755.81
2023-02-03T19:41:07.156Z,95749.97
2023-02-03T19:43:35.471Z,95748.56
2023-02-03T19:46:02.749Z,95734.81
2023-02-03T19:48:31.540Z,95754.59
2023-02-03T19:50:59.031Z,95732.19
2023-02-03T19:56:07.649Z,95742.69
2023-02-03T19:58:41.883Z,95749.97
2023-02-03T20:01:13.721Z,95747.34
2023-02-03T20:06:24.487Z,95763.50
2023-02-03T20:08:56.480Z,95754.44
2023-02-03T20:11:25.165Z,95752.59
2023-02-03T20:13:57.845Z,95762.28
2023-02-03T20:16:25.146Z,95784.88
2023-02-03T20:18:59.362Z,95766.09
2023-02-03T20:29:34.710Z,95765.94
2023-02-03T20:32:02.475Z,95759.88
2023-02-03T20:34:35.255Z,95743.72
2023-02-03T20:37:02.319Z,95766.94
2023-02-03T20:39:29.521Z,95788.91
2023-02-03T20:41:57.079Z,95794.16
2023-02-03T20:44:31.617Z,95775.41
2023-02-03T20:47:11.320Z,95794.97
2023-02-03T20:49:38.486Z,95792.94
2023-02-03T20:52:10.526Z,95798.81
2023-02-03T20:54:43.247Z,95799.00
2023-02-03T20:57:14.997Z,95789.50
2023-02-03T20:59:46.727Z,95793.75
2023-02-03T21:02:29.808Z,95790.50
2023-02-03T21:05:00.820Z,95789.50
2023-02-03T21:07:33.653Z,95801.00
2023-02-03T21:12:59.469Z,95798.16
2023-02-03T21:15:31.260Z,95804.22
2023-02-03T21:18:25.639Z,95809.28
2023-02-03T21:20:52.329Z,95800.78
2023-02-03T21:23:26.766Z,95805.41
2023-02-03T21:25:54.934Z,95803.19
2023-02-03T21:28:25.837Z,95806.81
2023-02-03T21:30:54.271Z,95799.97
2023-02-03T21:33:32.437Z,95803.75
2023-02-03T21:35:59.338Z,95788.41
2023-02-03T21:38:30.795Z,95789.44
2023-02-03T21:41:01.520Z,95785.56
2023-02-03T21:43:30.133Z,95782.94
2023-02-03T21:46:03.223Z,95785.56
2023-02-03T21:48:38.995Z,95780.72
2023-02-03T21:51:16.143Z,95780.34
2023-02-03T21:53:49.267Z,95775.94
2023-02-03T21:56:22.400Z,95777.53
2023-02-03T21:59:02.971Z,95787.00
2023-02-03T22:01:39.496Z,95780.34
2023-02-03T22:04:29.423Z,95766.03
2023-02-03T22:06:59.035Z,95760.41
2023-02-03T22:09:29.905Z,95758.75
2023-02-03T22:11:57.490Z,95761.19
2023-02-03T22:14:27.453Z,95765.22
2023-02-03T22:16:59.105Z,95771.06
2023-02-03T22:22:15.754Z,95750.09
2023-02-03T22:24:42.598Z,95765.63
2023-02-03T22:27:10.409Z,95764.22
2023-02-03T22:29:41.550Z,95761.41
2023-02-03T22:32:10.718Z,95769.28
2023-02-03T22:34:41.615Z,95760.97
2023-02-03T22:37:08.450Z,95777.94
2023-02-03T22:39:35.831Z,95772.47
2023-02-03T22:42:04.421Z,95775.09
2023-02-03T22:44:31.147Z,95776.09
2023-02-03T22:46:58.671Z,95775.50
2023-02-03T22:49:25.830Z,95777.94
2023-02-03T22:51:56.137Z,95787.00
2023-02-03T22:54:22.925Z,95779.13
2023-02-03T22:56:50.264Z,95792.22
2023-02-03T22:59:16.931Z,95793.66
2023-02-03T23:01:44.961Z,95785.97
2023-02-03T23:04:11.587Z,95794.84
2023-02-03T23:06:39.406Z,95789.59
2023-02-03T23:09:07.906Z,95783.75
2023-02-03T23:11:35.858Z,95775.69
2023-02-03T23:14:03.188Z,95782.34
2023-02-03T23:16:31.162Z,95780.69
2023-02-03T23:18:59.028Z,95786.97
2023-02-03T23:21:25.891Z,95780.91
2023-02-03T23:23:52.577Z,95783.53
2023-02-03T23:26:21.661Z,95777.91
2023-02-03T23:28:48.486Z,95776.88
2023-02-03T23:31:16.614Z,95787.19
2023-02-03T23:34:06.835Z,95789.97
2023-02-03T23:36:41.587Z,95781.09
2023-02-03T23:41:50.372Z,95780.09
2023-02-03T23:44:17.123Z,95779.28
2023-02-03T23:46:48.279Z,95784.31
2023-02-03T23:49:15.002Z,95789.53
2023-02-03T23:51:42.342Z,95786.91
2023-02-03T23:56:53.012Z,95790.56
